Time;durP1;ratioP1;P1;durP2;ratioP2;P2;SDS_P1;SDS_P2;PMS_P1;PMS_P2;Temp;Humidity;BMP_temperature;BMP_pressure;BME280_temperature;BME280_humidity;BME280_pressure;Samples;Min_cycle;Max_cycle;Signal;HPM_P1;HPM_P2
2022/02/17 00:01:02;;;;;;;0.40;0.30;;;12.50;99.90;;;;;;4973813;28;20303;-73
2022/02/17 00:03:28;;;;;;;0.40;0.37;;;12.60;99.90;;;;;;4973969;28;20275;-74
2022/02/17 00:05:55;;;;;;;0.40;0.40;;;12.70;99.90;;;;;;4974838;28;20250;-72
2022/02/17 00:08:21;;;;;;;0.40;0.30;;;12.70;99.90;;;;;;4973975;28;20515;-73
2022/02/17 00:10:47;;;;;;;0.40;0.30;;;12.80;99.90;;;;;;4972549;28;20411;-71
2022/02/17 00:13:13;;;;;;;0.40;0.30;;;12.80;99.90;;;;;;4974456;28;20435;-73
2022/02/17 00:15:38;;;;;;;0.30;0.30;;;12.80;99.90;;;;;;4973330;28;20176;-73
2022/02/17 00:18:12;;;;;;;1.90;0.43;;;12.90;99.90;;;;;;4977066;28;20176;-72
2022/02/17 00:20:38;;;;;;;0.30;0.30;;;12.90;99.90;;;;;;4974767;28;20183;-73
2022/02/17 00:23:04;;;;;;;0.40;0.40;;;13.00;99.90;;;;;;4974428;28;20503;-74
2022/02/17 00:25:29;;;;;;;0.40;0.30;;;12.90;99.90;;;;;;4972594;28;20176;-73
2022/02/17 00:27:55;;;;;;;0.30;0.30;;;13.00;99.90;;;;;;4973537;28;20192;-73
2022/02/17 00:30:20;;;;;;;0.40;0.40;;;13.10;99.90;;;;;;4973743;28;20184;-73
2022/02/17 00:32:46;;;;;;;1.00;0.40;;;13.10;99.90;;;;;;4977350;28;20664;-72
2022/02/17 00:35:12;;;;;;;0.43;0.40;;;13.00;99.90;;;;;;4975735;28;20676;-73
2022/02/17 00:37:37;;;;;;;0.30;0.30;;;13.00;99.90;;;;;;4973479;28;20563;-73
2022/02/17 00:40:04;;;;;;;0.40;0.40;;;13.00;99.90;;;;;;4973066;28;20670;-73
2022/02/17 00:42:30;;;;;;;0.40;0.30;;;13.00;99.90;;;;;;4972689;28;20196;-74
2022/02/17 00:44:55;;;;;;;0.40;0.40;;;13.00;99.90;;;;;;4974709;28;20605;-73
2022/02/17 00:47:21;;;;;;;0.30;0.30;;;12.90;99.90;;;;;;4972944;28;20607;-72
2022/02/17 00:49:46;;;;;;;0.43;0.43;;;12.90;99.90;;;;;;4972880;28;20220;-73
2022/02/17 00:52:12;;;;;;;0.40;0.30;;;12.90;99.90;;;;;;4973235;28;20227;-73
2022/02/17 00:54:38;;;;;;;0.40;0.30;;;12.90;99.90;;;;;;4972144;28;20195;-73
2022/02/17 00:57:04;;;;;;;0.40;0.33;;;12.90;99.90;;;;;;4973704;28;20954;-73
2022/02/17 00:59:30;;;;;;;0.80;0.53;;;12.80;99.90;;;;;;4972742;28;20182;-73
2022/02/17 05:31:12;;;;;;;0.40;0.40;;;11.90;99.90;;;;;;5869167;23;20805;-71
2022/02/17 05:33:37;;;;;;;0.40;0.40;;;11.90;99.90;;;;;;4974561;28;20442;-72
2022/02/17 05:36:03;;;;;;;0.90;0.40;;;11.90;99.90;;;;;;4976101;28;20180;-72
2022/02/17 05:38:28;;;;;;;1.17;0.40;;;11.90;99.90;;;;;;4976329;28;20566;-70
2022/02/17 05:40:54;;;;;;;3.43;0.30;;;11.80;99.90;;;;;;4975372;28;20578;-71
2022/02/17 05:43:20;;;;;;;0.40;0.30;;;11.60;99.90;;;;;;4975276;28;20253;-72
2022/02/17 05:45:45;;;;;;;0.40;0.40;;;11.50;99.90;;;;;;4975555;28;20717;-72
2022/02/17 05:48:11;;;;;;;2.00;0.80;;;11.40;99.90;;;;;;4975311;28;20265;-72
2022/02/17 05:50:36;;;;;;;1.43;0.70;;;11.20;99.90;;;;;;4975729;28;20262;-72
2022/02/17 05:53:02;;;;;;;3.70;0.70;;;11.00;99.90;;;;;;4974649;28;20192;-72
2022/02/17 05:55:28;;;;;;;2.30;0.53;;;11.00;99.90;;;;;;4975916;28;20183;-73
2022/02/17 05:57:55;;;;;;;3.47;0.50;;;10.90;99.90;;;;;;4974509;28;20462;-69
2022/02/17 06:00:20;;;;;;;3.27;0.70;;;10.90;99.90;;;;;;4974768;28;20232;-71
2022/02/17 06:02:46;;;;;;;1.10;0.57;;;11.00;99.90;;;;;;4974399;28;20465;-70
2022/02/17 06:05:12;;;;;;;1.73;0.87;;;11.00;99.90;;;;;;4975863;28;20191;-72
2022/02/17 06:07:39;;;;;;;5.40;0.50;;;11.00;99.90;;;;;;4974710;28;20262;-72
2022/02/17 06:10:06;;;;;;;3.40;0.60;;;11.10;99.90;;;;;;4975455;28;20467;-72
2022/02/17 06:12:32;;;;;;;5.30;0.70;;;11.10;99.90;;;;;;4975386;28;20451;-72
2022/02/17 06:14:58;;;;;;;1.40;1.03;;;11.20;99.90;;;;;;4976572;28;20419;-72
2022/02/17 06:17:24;;;;;;;3.87;1.00;;;11.30;99.90;;;;;;4975143;28;20434;-72
2022/02/17 06:19:51;;;;;;;5.53;0.97;;;11.30;99.90;;;;;;4975084;28;20972;-70
2022/02/17 06:22:16;;;;;;;3.83;0.83;;;11.30;99.90;;;;;;4973650;28;20265;-69
2022/02/17 06:24:42;;;;;;;3.33;1.33;;;11.30;99.90;;;;;;4959158;28;20851;-68
2022/02/17 06:27:07;;;;;;;3.87;0.73;;;11.30;99.90;;;;;;4960608;28;20192;-68
2022/02/17 06:29:33;;;;;;;2.37;0.70;;;11.30;99.90;;;;;;4970694;28;20207;-68
2022/02/17 06:31:58;;;;;;;7.03;1.40;;;11.30;99.90;;;;;;4975052;28;20264;-75
2022/02/17 06:34:24;;;;;;;5.10;1.00;;;11.30;99.90;;;;;;4975872;28;20184;-74
2022/02/17 06:36:49;;;;;;;5.57;0.83;;;11.20;99.90;;;;;;4975779;28;20563;-70
2022/02/17 06:39:16;;;;;;;6.80;1.23;;;11.20;99.90;;;;;;4973968;28;20197;-71
2022/02/17 06:41:41;;;;;;;8.93;1.03;;;11.20;99.90;;;;;;4975359;28;20210;-76
2022/02/17 06:44:07;;;;;;;7.60;1.43;;;11.20;99.90;;;;;;4974097;28;20501;-70
2022/02/17 06:46:35;;;;;;;4.60;1.00;;;11.20;99.90;;;;;;4974948;28;20194;-71
2022/02/17 06:49:02;;;;;;;5.40;1.37;;;11.20;99.90;;;;;;4974431;28;20203;-70
2022/02/17 06:51:27;;;;;;;6.80;1.50;;;11.30;99.90;;;;;;4974019;28;20466;-72
2022/02/17 06:53:53;;;;;;;3.80;1.60;;;11.30;99.90;;;;;;4974356;28;20429;-70
2022/02/17 06:56:19;;;;;;;4.63;1.03;;;11.30;99.90;;;;;;4974672;28;20701;-71
2022/02/17 06:58:46;;;;;;;8.13;1.17;;;11.20;99.90;;;;;;4974912;28;20872;-71
2022/02/17 07:01:12;;;;;;;3.40;1.20;;;11.20;99.90;;;;;;4973261;28;20470;-70
2022/02/17 07:03:38;;;;;;;4.60;1.33;;;11.20;99.90;;;;;;4974708;28;20928;-70
2022/02/17 07:06:03;;;;;;;6.93;1.20;;;11.20;99.90;;;;;;4974037;28;20454;-70
2022/02/17 07:08:29;;;;;;;3.70;1.27;;;11.20;99.90;;;;;;4974412;28;20653;-70
2022/02/17 07:10:55;;;;;;;9.50;1.40;;;11.30;99.90;;;;;;4973348;28;20201;-70
2022/02/17 07:13:28;;;;;;;3.53;1.47;;;11.30;99.90;;;;;;4974455;28;20194;-71
2022/02/17 07:15:55;;;;;;;5.30;1.20;;;11.40;99.90;;;;;;4974300;28;20201;-71
2022/02/17 07:18:22;;;;;;;3.13;1.43;;;11.40;99.90;;;;;;4974554;28;20415;-70
2022/02/17 07:20:49;;;;;;;5.03;0.93;;;11.40;99.90;;;;;;4974132;28;20458;-71
2022/02/17 07:23:16;;;;;;;12.27;1.60;;;11.30;99.90;;;;;;4974205;28;20447;-71
2022/02/17 07:25:46;;;;;;;8.10;1.73;;;11.30;99.90;;;;;;4974294;28;20410;-71
2022/02/17 07:28:13;;;;;;;4.43;1.43;;;11.30;99.90;;;;;;4973177;28;20474;-71
2022/02/17 07:30:39;;;;;;;8.37;1.77;;;11.30;99.90;;;;;;4973933;28;20419;-72
2022/02/17 07:33:07;;;;;;;3.70;1.43;;;11.40;99.90;;;;;;4972845;28;20462;-71
2022/02/17 07:35:33;;;;;;;4.20;1.60;;;11.40;99.90;;;;;;4973915;28;20426;-71
2022/02/17 07:37:59;;;;;;;6.93;2.43;;;11.50;99.90;;;;;;4973444;28;20442;-71
2022/02/17 07:40:24;;;;;;;6.20;1.70;;;11.50;99.90;;;;;;4973795;28;21110;-72
2022/02/17 07:42:50;;;;;;;4.60;1.33;;;11.50;99.90;;;;;;4972566;28;20207;-71
2022/02/17 07:45:16;;;;;;;6.03;1.53;;;11.50;99.90;;;;;;4971776;28;20210;-71
2022/02/17 07:47:45;;;;;;;6.43;0.90;;;11.50;99.90;;;;;;4970798;28;20282;-71
2022/02/17 07:50:12;;;;;;;4.97;2.00;;;11.60;99.90;;;;;;4966759;28;20575;-71
2022/02/17 07:52:38;;;;;;;4.17;1.60;;;11.70;99.90;;;;;;4971607;28;20942;-69
2022/02/17 07:55:04;;;;;;;2.07;1.43;;;12.00;99.90;;;;;;4973756;28;20502;-71
2022/02/17 07:57:29;;;;;;;6.00;1.20;;;13.10;99.90;;;;;;4971226;28;20722;-68
2022/02/17 07:59:55;;;;;;;3.73;1.10;;;14.00;99.90;;;;;;4972065;28;20424;-69
2022/02/17 08:02:21;;;;;;;3.90;1.20;;;14.60;99.90;;;;;;4973550;28;20202;-70
2022/02/17 08:04:46;;;;;;;8.17;1.20;;;14.70;99.90;;;;;;4972053;28;20687;-70
2022/02/17 08:07:12;;;;;;;7.80;1.30;;;15.40;99.90;;;;;;4973014;28;20223;-71
2022/02/17 08:09:38;;;;;;;4.23;1.20;;;15.70;99.90;;;;;;4972755;28;20226;-70
2022/02/17 08:12:04;;;;;;;4.23;1.40;;;15.90;99.90;;;;;;4973260;28;20294;-71
2022/02/17 08:14:29;;;;;;;7.80;1.80;;;16.30;99.90;;;;;;4971894;28;20443;-70
2022/02/17 08:16:55;;;;;;;5.13;1.93;;;16.40;99.90;;;;;;4973295;28;20912;-71
2022/02/17 08:19:20;;;;;;;4.30;1.67;;;16.10;99.90;;;;;;4972375;28;20196;-71
2022/02/17 08:21:46;;;;;;;3.90;1.60;;;15.50;99.90;;;;;;4972615;28;20203;-70
2022/02/17 08:24:13;;;;;;;3.20;1.63;;;15.20;99.90;;;;;;4957861;28;20826;-70
2022/02/17 08:26:39;;;;;;;3.93;1.67;;;14.80;99.90;;;;;;4971148;28;20234;-70
2022/02/17 08:29:06;;;;;;;7.60;1.40;;;14.50;99.90;;;;;;4973159;28;20458;-69
2022/02/17 08:31:32;;;;;;;11.00;1.60;;;14.40;99.90;;;;;;4971893;28;20471;-70
2022/02/17 08:34:03;;;;;;;5.47;1.40;;;14.40;99.90;;;;;;4971361;28;20474;-71
2022/02/17 08:36:29;;;;;;;9.57;1.47;;;14.20;99.90;;;;;;4972101;28;20639;-70
2022/02/17 08:38:54;;;;;;;9.00;1.47;;;14.40;99.90;;;;;;4961430;28;20527;-70
2022/02/17 08:41:20;;;;;;;7.13;1.50;;;14.60;99.90;;;;;;4967633;28;20959;-69
2022/02/17 08:43:46;;;;;;;6.13;1.73;;;14.40;99.90;;;;;;4966413;28;20180;-69
2022/02/17 08:46:11;;;;;;;9.30;1.37;;;14.60;99.90;;;;;;4968508;28;20269;-71
2022/02/17 08:48:37;;;;;;;6.20;1.90;;;14.50;99.90;;;;;;4969244;28;20204;-72
2022/02/17 08:51:02;;;;;;;10.40;2.50;;;14.50;99.90;;;;;;4970085;28;20207;-70
2022/02/17 08:53:28;;;;;;;5.30;1.63;;;14.10;99.90;;;;;;4970514;28;20657;-70
2022/02/17 08:55:54;;;;;;;6.93;1.83;;;13.80;99.90;;;;;;4969896;28;20178;-68
2022/02/17 08:58:20;;;;;;;7.93;1.80;;;13.80;99.90;;;;;;4969300;28;20222;-69
2022/02/17 09:00:48;;;;;;;7.50;2.47;;;14.00;99.90;;;;;;4971709;28;20459;-71
2022/02/17 09:03:14;;;;;;;8.60;1.73;;;14.00;99.90;;;;;;4973180;28;20238;-69
2022/02/17 09:05:40;;;;;;;13.10;2.70;;;13.80;99.90;;;;;;4973248;28;20782;-68
2022/02/17 09:08:07;;;;;;;10.30;2.30;;;13.50;99.90;;;;;;4972856;28;20176;-69
2022/02/17 09:10:33;;;;;;;6.83;2.43;;;13.20;99.90;;;;;;4973959;28;20907;-69
2022/02/17 09:12:59;;;;;;;9.53;2.50;;;12.90;99.90;;;;;;4975159;28;20443;-69
2022/02/17 09:15:24;;;;;;;14.77;2.00;;;13.00;99.90;;;;;;4973279;28;20546;-68
2022/02/17 09:17:50;;;;;;;7.53;2.50;;;13.30;99.90;;;;;;4973348;28;20207;-68
2022/02/17 09:20:16;;;;;;;9.43;2.70;;;13.70;99.90;;;;;;4972233;28;20195;-69
2022/02/17 09:22:43;;;;;;;9.00;1.97;;;13.90;99.90;;;;;;4972184;28;20575;-69
2022/02/17 09:25:09;;;;;;;13.00;2.20;;;14.30;99.90;;;;;;4971799;28;20417;-68
2022/02/17 09:27:35;;;;;;;15.20;2.10;;;14.20;99.90;;;;;;4972576;28;20789;-68
2022/02/17 09:30:03;;;;;;;8.63;2.80;;;14.00;99.90;;;;;;4971090;28;20485;-69
2022/02/17 09:32:29;;;;;;;9.93;1.90;;;13.80;99.90;;;;;;4971280;28;20550;-68
2022/02/17 09:34:54;;;;;;;7.50;2.40;;;14.00;99.90;;;;;;4972036;28;20593;-69
2022/02/17 09:37:20;;;;;;;11.73;2.73;;;14.00;99.90;;;;;;4972123;28;20336;-69
2022/02/17 09:39:46;;;;;;;4.73;1.97;;;14.10;99.90;;;;;;4972466;28;20211;-69
2022/02/17 09:42:12;;;;;;;11.10;2.30;;;14.00;99.90;;;;;;4971276;28;20562;-70
2022/02/17 09:44:39;;;;;;;5.63;2.10;;;14.20;99.90;;;;;;4971149;28;20458;-70
2022/02/17 09:47:07;;;;;;;13.33;2.40;;;14.50;99.90;;;;;;4972110;28;20184;-70
2022/02/17 09:49:33;;;;;;;13.63;2.90;;;14.60;99.90;;;;;;4971301;28;20518;-69
2022/02/17 09:51:59;;;;;;;18.50;3.30;;;14.50;99.90;;;;;;4971551;28;20490;-70
2022/02/17 09:54:25;;;;;;;21.37;2.77;;;14.60;99.90;;;;;;4970222;28;20467;-70
2022/02/17 09:56:51;;;;;;;15.77;3.23;;;14.60;99.90;;;;;;4972829;28;20683;-69
2022/02/17 09:59:18;;;;;;;16.67;4.07;;;14.30;99.90;;;;;;4974966;28;20539;-70
2022/02/17 10:01:53;;;;;;;9.20;2.70;;;13.80;99.90;;;;;;4975312;28;20432;-70
2022/02/17 10:04:24;;;;;;;14.27;2.47;;;13.90;99.90;;;;;;4974378;28;20426;-70
2022/02/17 10:06:58;;;;;;;19.13;3.37;;;14.10;99.90;;;;;;4968735;28;20808;-70
2022/02/17 10:09:41;;;;;;;14.10;3.40;;;14.00;99.90;;;;;;4975185;28;20470;-68
2022/02/17 10:12:09;;;;;;;11.97;2.47;;;14.40;99.90;;;;;;4974837;28;20509;-69
2022/02/17 10:14:35;;;;;;;13.80;2.60;;;14.10;99.90;;;;;;4975038;28;20479;-69
2022/02/17 10:17:03;;;;;;;10.90;2.43;;;13.50;99.90;;;;;;4974392;28;20459;-70
2022/02/17 10:19:50;;;;;;;15.57;2.60;;;12.90;99.90;;;;;;4975483;28;20423;-69
2022/02/17 10:22:29;;;;;;;18.47;4.33;;;12.20;99.90;;;;;;4974615;28;20473;-69
2022/02/17 10:24:55;;;;;;;11.73;3.00;;;11.80;99.90;;;;;;4974797;28;20416;-69
2022/02/17 10:27:25;;;;;;;20.33;2.77;;;11.40;99.90;;;;;;4974582;28;20868;-69
2022/02/17 10:30:09;;;;;;;10.13;2.30;;;11.30;99.90;;;;;;4974540;28;20246;-69
2022/02/17 10:32:37;;;;;;;10.73;2.80;;;11.80;99.90;;;;;;4973878;28;21050;-70
2022/02/17 10:35:13;;;;;;;10.80;2.60;;;12.50;99.90;;;;;;4974341;28;20430;-71
2022/02/17 10:37:53;;;;;;;9.80;3.17;;;12.60;99.90;;;;;;4974019;28;22049;-70
2022/02/17 10:40:27;;;;;;;10.63;2.70;;;12.60;99.90;;;;;;4974708;28;20510;-69
2022/02/17 10:43:12;;;;;;;16.43;3.10;;;12.60;99.90;;;;;;4973327;28;20422;-69
2022/02/17 10:45:41;;;;;;;15.57;3.33;;;13.40;99.90;;;;;;4974575;28;20434;-70
2022/02/17 10:48:24;;;;;;;12.77;2.30;;;14.00;99.90;;;;;;4974525;28;20427;-69
2022/02/17 10:51:02;;;;;;;12.60;2.40;;;14.30;99.90;;;;;;4972200;28;20458;-70
2022/02/17 10:53:30;;;;;;;12.17;2.93;;;14.90;99.90;;;;;;4973927;28;20431;-70
2022/02/17 10:56:00;;;;;;;7.10;2.20;;;15.00;99.90;;;;;;4973745;28;20438;-68
2022/02/17 10:58:29;;;;;;;12.63;3.10;;;15.10;99.90;;;;;;4974606;28;20821;-70
2022/02/17 11:01:00;;;;;;;9.80;3.20;;;15.50;99.90;;;;;;4972781;28;20499;-68
2022/02/17 11:03:27;;;;;;;11.03;2.20;;;15.30;99.90;;;;;;4973727;28;20423;-69
2022/02/17 11:05:53;;;;;;;11.37;3.10;;;15.30;99.90;;;;;;4973479;28;20430;-69
2022/02/17 11:08:20;;;;;;;7.13;2.93;;;15.00;99.90;;;;;;4973760;28;20408;-69
2022/02/17 11:10:46;;;;;;;12.63;3.30;;;14.80;99.90;;;;;;4973973;28;20415;-69
2022/02/17 11:13:20;;;;;;;7.83;1.90;;;14.90;99.90;;;;;;4973231;28;20438;-70
2022/02/17 11:15:48;;;;;;;9.93;1.97;;;14.90;99.90;;;;;;4974064;28;20399;-69
2022/02/17 11:18:16;;;;;;;10.00;2.30;;;15.20;99.90;;;;;;4973539;28;20939;-69
2022/02/17 11:20:43;;;;;;;11.30;2.13;;;15.00;99.90;;;;;;4974126;28;20494;-70
2022/02/17 11:23:09;;;;;;;4.77;1.80;;;14.50;99.90;;;;;;4972542;28;20518;-70
2022/02/17 11:25:40;;;;;;;9.30;2.03;;;14.40;99.90;;;;;;4973926;28;20514;-70
2022/02/17 11:28:09;;;;;;;6.70;2.20;;;14.30;99.90;;;;;;4973482;28;20407;-68
2022/02/17 11:30:36;;;;;;;7.07;1.83;;;14.10;99.90;;;;;;4973145;28;20558;-69
2022/02/17 11:33:43;;;;;;;9.90;1.93;;;14.30;99.90;;;;;;4972607;28;20482;-69
2022/02/17 11:36:25;;;;;;;7.00;2.30;;;14.50;99.90;;;;;;4948861;29;20784;-68
2022/02/17 11:38:59;;;;;;;9.67;2.37;;;14.40;99.90;;;;;;4973051;28;20411;-69
2022/02/17 11:41:30;;;;;;;9.00;2.10;;;14.10;99.90;;;;;;4973023;28;20455;-68
2022/02/17 11:44:13;;;;;;;8.63;2.07;;;14.10;99.90;;;;;;4973654;28;20423;-69
2022/02/17 11:46:41;;;;;;;8.67;2.17;;;14.20;99.90;;;;;;4967990;28;20833;-71
2022/02/17 11:49:38;;;;;;;9.40;1.77;;;14.20;99.90;;;;;;4972166;28;20474;-70
2022/02/17 11:52:18;;;;;;;11.03;1.83;;;14.10;99.90;;;;;;4969361;28;20950;-68
2022/02/17 11:55:13;;;;;;;8.37;2.37;;;14.10;99.90;;;;;;4967195;28;20846;-68
2022/02/17 11:57:39;;;;;;;7.03;2.00;;;14.10;99.90;;;;;;4962382;28;20468;-68
2022/02/17 12:00:25;;;;;;;16.13;2.87;;;14.00;99.90;;;;;;4967588;28;20439;-69
2022/02/17 12:02:54;;;;;;;5.33;1.73;;;14.00;99.90;;;;;;4962657;28;21009;-69
2022/02/17 12:05:20;;;;;;;8.00;1.80;;;14.10;99.90;;;;;;4972828;28;20427;-69
2022/02/17 12:07:46;;;;;;;11.67;2.50;;;14.10;99.90;;;;;;4972074;28;20474;-68
2022/02/17 12:10:29;;;;;;;10.43;2.67;;;14.20;99.90;;;;;;4953657;29;20657;-69
2022/02/17 12:12:55;;;;;;;8.40;2.57;;;14.00;99.90;;;;;;4954898;28;20177;-68
2022/02/17 12:15:22;;;;;;;8.70;2.20;;;13.70;99.90;;;;;;4972723;28;20459;-69
2022/02/17 12:17:47;;;;;;;15.63;3.40;;;13.70;99.90;;;;;;4973258;28;20168;-70
2022/02/17 12:20:21;;;;;;;14.60;2.93;;;13.60;99.90;;;;;;4971559;28;20624;-70
2022/02/17 12:22:55;;;;;;;7.67;1.97;;;13.80;99.90;;;;;;4972290;28;20262;-69
2022/02/17 12:25:27;;;;;;;15.20;2.50;;;14.00;99.90;;;;;;4971851;28;20450;-68
2022/02/17 12:27:55;;;;;;;6.13;2.13;;;13.90;99.90;;;;;;4973202;28;20482;-69
2022/02/17 12:30:46;;;;;;;12.47;2.20;;;13.80;99.90;;;;;;4970140;28;20471;-70
2022/02/17 12:33:12;;;;;;;7.03;1.47;;;13.80;99.90;;;;;;4972144;28;20454;-69
2022/02/17 12:35:40;;;;;;;9.57;2.70;;;13.70;99.90;;;;;;4972109;28;20482;-69
2022/02/17 12:38:14;;;;;;;8.20;1.93;;;13.80;99.90;;;;;;4971893;28;20470;-70
2022/02/17 12:40:41;;;;;;;6.63;2.40;;;14.00;99.90;;;;;;4971900;28;20478;-69
2022/02/17 12:43:08;;;;;;;7.13;1.70;;;13.90;99.90;;;;;;4976926;28;20442;-70
2022/02/17 12:45:33;;;;;;;4.63;1.60;;;13.80;99.90;;;;;;4991593;28;20415;-70
2022/02/17 12:48:00;;;;;;;7.23;2.00;;;14.00;99.90;;;;;;4975028;28;20939;-70
2022/02/17 12:50:26;;;;;;;13.37;2.67;;;14.10;99.90;;;;;;4972526;28;20219;-70
2022/02/17 12:52:51;;;;;;;10.37;2.43;;;14.20;99.90;;;;;;4971134;28;20474;-69
2022/02/17 12:55:17;;;;;;;9.73;2.23;;;13.90;99.90;;;;;;4972145;28;20235;-70
2022/02/17 12:57:52;;;;;;;15.47;3.43;;;13.80;99.90;;;;;;4972155;28;20186;-71
2022/02/17 13:00:19;;;;;;;11.20;2.70;;;13.70;99.90;;;;;;4973015;28;20580;-71
2022/02/17 13:02:46;;;;;;;14.53;2.93;;;13.70;99.90;;;;;;4971913;28;20812;-69
2022/02/17 13:05:14;;;;;;;12.90;2.97;;;13.60;99.90;;;;;;4970933;28;20442;-71
2022/02/17 13:07:40;;;;;;;13.63;3.10;;;13.60;99.90;;;;;;4972636;28;20474;-70
2022/02/17 13:10:06;;;;;;;15.77;3.10;;;13.40;99.90;;;;;;4972047;28;20487;-71
2022/02/17 13:12:32;;;;;;;14.37;2.90;;;13.30;99.90;;;;;;4972073;28;20447;-71
2022/02/17 13:14:59;;;;;;;13.03;3.90;;;13.50;99.90;;;;;;4971341;28;20773;-71
2022/02/17 13:17:26;;;;;;;12.67;3.40;;;13.40;99.90;;;;;;4971455;28;20203;-72
2022/02/17 13:19:53;;;;;;;17.10;3.27;;;13.20;99.90;;;;;;4972101;28;20423;-70
2022/02/17 13:22:38;;;;;;;11.00;4.23;;;13.20;99.90;;;;;;4971489;28;20498;-71
2022/02/17 13:25:07;;;;;;;12.83;2.70;;;13.00;99.90;;;;;;4971670;28;20442;-72
2022/02/17 13:27:35;;;;;;;11.03;2.80;;;12.90;99.90;;;;;;4971275;28;20875;-70
2022/02/17 13:30:03;;;;;;;16.87;3.37;;;13.00;99.90;;;;;;4972170;28;20542;-72
2022/02/17 13:32:31;;;;;;;14.73;3.33;;;13.00;99.90;;;;;;4973054;28;20471;-71
2022/02/17 13:35:06;;;;;;;15.13;3.90;;;12.90;99.90;;;;;;4959318;28;20428;-71
2022/02/17 13:37:39;;;;;;;14.40;2.90;;;12.80;99.90;;;;;;4963967;28;20426;-71
2022/02/17 13:40:05;;;;;;;12.67;3.30;;;12.80;99.90;;;;;;4974610;28;20515;-70
2022/02/17 13:42:30;;;;;;;11.23;3.10;;;12.90;99.90;;;;;;4975479;28;20438;-71
2022/02/17 13:44:57;;;;;;;18.90;3.73;;;13.00;99.90;;;;;;4974600;28;20449;-71
2022/02/17 13:47:36;;;;;;;26.20;4.67;;;13.10;99.90;;;;;;4975928;28;20259;-72
2022/02/17 13:50:07;;;;;;;17.13;2.57;;;13.20;99.90;;;;;;4974647;28;20470;-71
2022/02/17 13:52:32;;;;;;;11.77;2.90;;;13.20;99.90;;;;;;4975315;28;20462;-71
2022/02/17 13:55:00;;;;;;;13.00;2.80;;;12.90;99.90;;;;;;4974893;28;21001;-70
2022/02/17 13:57:27;;;;;;;15.23;2.43;;;12.90;99.90;;;;;;4975539;28;20211;-71
2022/02/17 14:00:04;;;;;;;8.73;3.50;;;12.80;99.90;;;;;;4975646;28;20441;-70
2022/02/17 14:02:31;;;;;;;9.60;2.43;;;12.80;99.90;;;;;;4974442;28;20483;-71
2022/02/17 14:04:59;;;;;;;11.80;2.70;;;12.80;99.90;;;;;;4975354;28;20778;-71
2022/02/17 14:07:27;;;;;;;16.67;2.20;;;12.90;99.90;;;;;;4974929;28;20466;-70
2022/02/17 14:09:52;;;;;;;10.93;2.57;;;12.90;99.90;;;;;;4975588;28;20461;-70
2022/02/17 14:12:18;;;;;;;13.00;2.80;;;12.90;99.90;;;;;;4974511;28;20963;-71
2022/02/17 14:14:43;;;;;;;7.10;2.50;;;12.80;99.90;;;;;;4974706;28;20669;-71
2022/02/17 14:17:18;;;;;;;8.53;2.27;;;12.70;99.90;;;;;;4975118;28;20544;-72
2022/02/17 14:19:44;;;;;;;9.80;2.37;;;12.60;99.90;;;;;;4974205;28;20186;-71
2022/02/17 14:22:09;;;;;;;8.70;1.90;;;12.60;99.90;;;;;;4974499;28;20482;-71
2022/02/17 14:24:35;;;;;;;14.23;2.07;;;12.50;99.90;;;;;;4973224;28;20483;-71
2022/02/17 14:27:02;;;;;;;8.80;2.13;;;12.60;99.90;;;;;;4975356;28;20176;-72
2022/02/17 14:29:29;;;;;;;10.27;3.83;;;12.70;99.90;;;;;;4974250;28;20303;-72
2022/02/17 14:31:55;;;;;;;8.67;3.13;;;12.80;99.90;;;;;;4974482;28;20971;-71
2022/02/17 14:34:20;;;;;;;10.63;2.37;;;12.70;99.90;;;;;;4973480;28;20538;-69
2022/02/17 14:36:46;;;;;;;16.23;2.70;;;12.60;99.90;;;;;;4974308;28;20255;-71
2022/02/17 14:39:11;;;;;;;11.30;3.40;;;12.60;99.90;;;;;;4974317;28;20293;-72
2022/02/17 14:41:37;;;;;;;11.60;2.90;;;12.40;99.90;;;;;;4974174;28;20327;-71
2022/02/17 14:44:02;;;;;;;14.53;2.27;;;12.40;99.90;;;;;;4973297;28;20198;-71
2022/02/17 14:46:28;;;;;;;10.13;2.10;;;12.20;99.90;;;;;;4973648;28;20189;-71
2022/02/17 14:48:53;;;;;;;12.33;3.50;;;12.20;99.90;;;;;;4974389;28;20684;-71
2022/02/17 14:51:19;;;;;;;8.27;2.57;;;12.30;99.90;;;;;;4974431;28;20257;-71
2022/02/17 14:53:45;;;;;;;19.53;2.70;;;12.20;99.90;;;;;;4973849;28;20184;-71
2022/02/17 14:56:11;;;;;;;6.43;2.00;;;12.20;99.90;;;;;;4973811;28;20675;-71
2022/02/17 14:58:36;;;;;;;8.33;3.17;;;12.10;99.90;;;;;;4973611;28;20490;-70
2022/02/17 15:01:02;;;;;;;12.53;2.13;;;12.00;99.90;;;;;;4974320;28;20212;-72
2022/02/17 15:03:28;;;;;;;9.87;2.30;;;12.00;99.90;;;;;;4973694;28;20180;-71
2022/02/17 15:05:54;;;;;;;11.60;2.87;;;12.00;99.90;;;;;;4974279;28;20517;-71
2022/02/17 15:08:19;;;;;;;14.47;2.07;;;12.00;99.90;;;;;;4973215;28;20234;-71
2022/02/17 15:10:45;;;;;;;16.73;3.30;;;12.00;99.90;;;;;;4973503;28;20960;-72
2022/02/17 15:13:11;;;;;;;8.93;2.30;;;11.90;99.90;;;;;;4974035;28;20190;-71
2022/02/17 15:15:36;;;;;;;10.03;2.70;;;11.80;99.90;;;;;;4973313;28;20229;-71
2022/02/17 15:18:03;;;;;;;14.23;3.10;;;11.80;99.90;;;;;;4974267;28;20679;-72
2022/02/17 15:20:28;;;;;;;12.90;2.73;;;11.80;99.90;;;;;;4973436;28;20192;-72
2022/02/17 15:22:58;;;;;;;10.57;2.20;;;11.80;99.90;;;;;;4973337;28;21002;-72
2022/02/17 15:25:26;;;;;;;18.60;3.90;;;11.70;99.90;;;;;;4973727;28;20198;-71
2022/02/17 15:27:53;;;;;;;17.83;3.20;;;11.70;99.90;;;;;;4973673;28;20454;-71
2022/02/17 15:30:24;;;;;;;11.53;2.70;;;11.70;99.90;;;;;;4973829;28;20473;-72
2022/02/17 15:32:50;;;;;;;13.80;2.30;;;11.70;99.90;;;;;;4970462;28;20508;-71
2022/02/17 15:35:17;;;;;;;17.30;2.67;;;11.70;99.90;;;;;;4973494;28;20414;-71
2022/02/17 15:37:44;;;;;;;9.37;2.20;;;11.60;99.90;;;;;;4964238;28;20585;-70
2022/02/17 15:40:13;;;;;;;9.70;2.53;;;11.50;99.90;;;;;;4962932;28;20437;-70
2022/02/17 15:42:39;;;;;;;12.93;1.97;;;11.50;99.90;;;;;;4972896;28;20443;-70
2022/02/17 15:45:05;;;;;;;17.70;2.93;;;11.50;99.90;;;;;;4970887;28;20993;-70
2022/02/17 15:47:32;;;;;;;10.33;1.70;;;11.40;99.90;;;;;;4972765;28;20430;-70
2022/02/17 15:49:58;;;;;;;6.93;2.23;;;11.30;99.90;;;;;;4972439;28;20332;-70
2022/02/17 15:52:23;;;;;;;12.27;3.43;;;11.20;99.90;;;;;;4972768;28;20483;-70
2022/02/17 15:54:49;;;;;;;9.60;2.40;;;11.20;99.90;;;;;;4972103;28;20185;-70
2022/02/17 15:57:15;;;;;;;13.33;2.70;;;11.20;99.90;;;;;;4972208;28;20183;-70
2022/02/17 15:59:42;;;;;;;10.23;2.57;;;11.20;99.90;;;;;;4972360;28;20932;-69
2022/02/17 16:02:08;;;;;;;6.13;1.93;;;11.20;99.90;;;;;;4971428;28;20500;-70
2022/02/17 16:04:34;;;;;;;14.17;2.50;;;11.20;99.90;;;;;;4971476;28;20425;-70
2022/02/17 16:07:00;;;;;;;13.80;3.17;;;11.20;99.90;;;;;;4972416;28;20528;-68
2022/02/17 16:09:26;;;;;;;11.10;2.50;;;11.20;99.90;;;;;;4972451;28;20225;-70
2022/02/17 16:11:51;;;;;;;11.40;2.03;;;11.10;99.90;;;;;;4972996;28;20207;-70
2022/02/17 16:14:18;;;;;;;10.97;2.60;;;11.00;99.90;;;;;;4971441;28;21025;-68
2022/02/17 16:16:45;;;;;;;10.30;2.20;;;10.90;99.90;;;;;;4972782;28;20173;-70
2022/02/17 16:19:11;;;;;;;19.80;2.30;;;10.80;99.90;;;;;;4960287;28;20470;-72
2022/02/17 16:21:36;;;;;;;12.40;2.83;;;10.80;99.90;;;;;;4962573;28;20458;-69
2022/02/17 16:24:03;;;;;;;16.77;3.23;;;10.70;99.90;;;;;;4964295;28;20561;-70
2022/02/17 16:26:29;;;;;;;15.17;2.47;;;10.70;99.90;;;;;;4969695;28;20722;-72
2022/02/17 16:28:54;;;;;;;18.27;3.33;;;10.50;99.90;;;;;;4972802;28;20462;-71
2022/02/17 16:31:20;;;;;;;14.77;3.77;;;10.50;99.90;;;;;;4969852;28;20246;-71
2022/02/17 16:33:46;;;;;;;10.33;2.47;;;10.40;99.90;;;;;;4977902;28;20185;-72
2022/02/17 16:36:11;;;;;;;12.27;2.77;;;10.40;99.90;;;;;;4971923;28;20193;-71
2022/02/17 16:38:37;;;;;;;14.07;4.07;;;10.30;99.90;;;;;;4972683;28;20664;-72
2022/02/17 16:41:04;;;;;;;12.47;2.53;;;10.30;99.90;;;;;;4973279;28;20277;-70
2022/02/17 16:43:30;;;;;;;12.00;3.07;;;10.30;99.90;;;;;;4971917;28;20280;-71
2022/02/17 16:45:56;;;;;;;11.57;2.60;;;10.20;99.90;;;;;;4966304;28;20423;-72
2022/02/17 16:48:22;;;;;;;16.73;3.30;;;10.20;99.90;;;;;;4956080;28;20474;-71
2022/02/17 16:50:48;;;;;;;16.10;4.27;;;10.10;99.90;;;;;;4962614;28;20236;-71
2022/02/17 16:53:14;;;;;;;12.30;2.00;;;10.10;99.90;;;;;;4971041;28;20445;-72
2022/02/17 16:55:42;;;;;;;12.07;2.80;;;10.10;99.90;;;;;;4972671;28;20921;-72
2022/02/17 16:58:08;;;;;;;12.93;2.00;;;10.10;99.90;;;;;;4971837;28;20232;-71
2022/02/17 17:00:33;;;;;;;22.63;3.40;;;10.00;99.90;;;;;;4971358;28;20446;-71
2022/02/17 17:02:59;;;;;;;11.90;2.70;;;10.00;99.90;;;;;;4972379;28;20188;-72
2022/02/17 17:05:25;;;;;;;15.77;3.57;;;9.90;99.90;;;;;;4971231;28;20271;-74
2022/02/17 17:07:52;;;;;;;11.60;3.60;;;9.90;99.90;;;;;;4971618;28;20182;-73
2022/02/17 17:10:19;;;;;;;22.27;3.17;;;9.90;99.90;;;;;;4971825;28;20474;-74
2022/02/17 17:12:46;;;;;;;16.43;3.97;;;9.80;99.90;;;;;;4972243;28;20430;-73
2022/02/17 17:15:17;;;;;;;10.27;3.00;;;9.80;99.90;;;;;;4971635;28;20413;-74